Time;durP1;ratioP1;P1;durP2;ratioP2;P2;SDS_P1;SDS_P2;PMS_P1;PMS_P2;Temp;Humidity;BMP_temperature;BMP_pressure;BME280_temperature;BME280_humidity;BME280_pressure;Samples;Min_cycle;Max_cycle;Signal;HPM_P1;HPM_P2
2022/06/18 00:01:37;;;;;;;3.45;1.80;;;;;;;17.86;77.85;100616.47;1749949;82;22384;-43
2022/06/18 00:04:14;;;;;;;2.83;2.00;;;;;;;17.83;78.42;100614.48;1749937;82;20849;-43
2022/06/18 00:06:56;;;;;;;;;;;;;;;17.79;77.88;100614.59;1752629;82;20912;-43
2022/06/18 00:09:34;;;;;;;6.05;2.00;;;;;;;17.76;78.25;100618.66;1749964;82;21250;-42
2022/06/18 00:14:59;;;;;;;5.08;2.00;;;;;;;17.69;78.07;100621.66;1749781;81;20932;-43
2022/06/18 00:17:27;;;;;;;2.83;1.82;;;;;;;17.65;78.12;100618.32;1749890;82;21384;-42
2022/06/18 00:19:53;;;;;;;4.62;2.02;;;;;;;17.62;78.28;100619.77;1749958;82;20885;-43
2022/06/18 00:22:21;;;;;;;5.12;2.08;;;;;;;17.60;78.46;100623.75;1750140;82;21972;-43
2022/06/18 00:24:49;;;;;;;4.22;1.95;;;;;;;17.60;78.64;100636.01;1749843;82;21505;-43
2022/06/18 00:27:17;;;;;;;2.98;2.15;;;;;;;17.57;78.83;100635.67;1749950;82;20952;-42
2022/06/18 00:29:45;;;;;;;5.78;1.52;;;;;;;17.59;79.27;100639.55;1750078;82;20896;-43
2022/06/18 00:32:12;;;;;;;8.60;1.82;;;;;;;17.58;79.57;100641.77;1749857;82;20917;-42
2022/06/18 00:34:40;;;;;;;2.15;1.60;;;;;;;17.56;79.36;100645.75;1749844;82;21265;-43
2022/06/18 00:37:07;;;;;;;6.12;2.10;;;;;;;17.58;79.21;100643.91;1749870;81;20991;-42
2022/06/18 00:39:35;;;;;;;6.65;1.60;;;;;;;17.60;78.95;100643.39;1722794;82;20889;-43
2022/06/18 00:42:07;;;;;;;5.00;2.00;;;;;;;17.63;78.99;100634.08;1749789;80;20892;-43
2022/06/18 00:44:38;;;;;;;2.95;2.00;;;;;;;17.64;79.27;100631.85;1748815;82;20964;-42
2022/06/18 00:47:25;;;;;;;5.12;1.87;;;;;;;17.64;79.55;100631.02;1750078;80;21218;-43
2022/06/18 00:50:02;;;;;;;3.85;1.95;;;;;;;17.62;79.60;100627.63;1750101;81;20896;-43
2022/06/18 00:52:49;;;;;;;4.08;2.12;;;;;;;17.62;80.04;100622.39;1720747;81;20881;-42
2022/06/18 00:55:24;;;;;;;4.75;2.25;;;;;;;17.58;80.52;100629.52;1736032;82;20976;-43
2022/06/18 00:58:18;;;;;;;3.12;1.82;;;;;;;17.57;81.27;100628.30;1736200;82;20972;-43
2022/06/18 01:00:47;;;;;;;4.58;2.05;;;;;;;17.56;81.33;100631.84;1734605;82;21257;-41
2022/06/18 01:03:29;;;;;;;7.83;2.50;;;;;;;17.53;81.38;100629.72;1735903;81;20886;-42
2022/06/18 01:06:00;;;;;;;2.37;1.98;;;;;;;17.53;82.54;100619.25;1733424;82;21483;-42
2022/06/18 01:08:29;;;;;;;3.92;2.47;;;;;;;17.56;83.18;100623.98;1736038;82;20990;-41
2022/06/18 01:11:04;;;;;;;5.87;2.02;;;;;;;17.53;83.02;100621.03;1736054;82;20929;-43
2022/06/18 01:13:35;;;;;;;2.90;2.20;;;;;;;17.50;82.73;100614.16;1736194;82;21100;-43
2022/06/18 01:16:04;;;;;;;2.05;1.90;;;;;;;17.47;82.31;100615.61;1714991;82;20968;-42
2022/06/18 01:18:31;;;;;;;4.00;1.92;;;;;;;17.46;81.92;100615.70;1736044;82;21057;-42
2022/06/18 01:21:29;;;;;;;3.25;2.00;;;;;;;17.42;81.27;100607.56;1735944;82;21083;-42
2022/06/18 01:24:17;;;;;;;4.58;2.10;;;;;;;17.38;81.27;100611.63;1736000;81;20886;-43
2022/06/18 01:26:48;;;;;;;2.98;2.27;;;;;;;17.34;81.26;100614.48;1736081;82;21166;-43
2022/06/18 01:29:15;;;;;;;10.03;2.77;;;;;;;17.30;81.28;100614.19;1735999;82;22110;-43
2022/06/18 01:31:45;;;;;;;5.15;3.15;;;;;;;17.26;81.14;100617.87;1736066;82;20822;-43
2022/06/18 01:34:12;;;;;;;2.80;2.58;;;;;;;17.22;81.38;100621.09;1736161;82;20957;-43
2022/06/18 01:36:41;;;;;;;3.02;2.58;;;;;;;17.19;81.58;100620.76;1735805;82;21490;-43
2022/06/18 01:39:23;;;;;;;6.42;2.30;;;;;;;17.16;82.02;100620.89;1735957;82;21284;-42
2022/06/18 01:41:58;;;;;;;5.60;2.25;;;;;;;17.12;81.87;100628.48;1735945;82;20929;-42
2022/06/18 01:44:39;;;;;;;6.08;2.85;;;;;;;17.07;82.40;100631.29;1707859;82;20857;-43
2022/06/18 01:47:14;;;;;;;12.37;3.85;;;;;;;17.05;83.71;100638.80;1727445;82;20894;-43
2022/06/18 01:49:52;;;;;;;11.33;3.47;;;;;;;17.01;85.04;100634.17;1736077;81;20868;-43
2022/06/18 01:52:23;;;;;;;10.68;8.05;;;;;;;16.97;86.19;100631.72;1735885;82;21164;-43
2022/06/18 01:54:54;;;;;;;9.80;5.60;;;;;;;16.93;87.09;100625.78;1743680;82;20933;-43
2022/06/18 01:57:29;;;;;;;6.15;5.42;;;;;;;16.87;88.03;100626.88;1744200;82;20925;-42
2022/06/18 02:00:02;;;;;;;6.95;5.40;;;;;;;16.81;88.61;100631.91;1744078;82;21480;-42
2022/06/18 02:02:31;;;;;;;8.83;5.00;;;;;;;16.75;89.64;100637.84;1742124;82;20929;-42
2022/06/18 02:04:58;;;;;;;9.23;5.53;;;;;;;16.71;90.76;100637.14;1714866;82;21048;-43
2022/06/18 02:07:25;;;;;;;7.65;4.80;;;;;;;16.70;91.42;100639.80;1744122;82;20921;-43
2022/06/18 02:10:06;;;;;;;7.28;3.77;;;;;;;16.65;91.84;100638.23;1744201;82;20878;-43
2022/06/18 02:12:36;;;;;;;7.83;3.67;;;;;;;16.63;92.16;100640.50;1743939;82;20929;-43
2022/06/18 02:15:12;;;;;;;6.50;3.67;;;;;;;16.60;92.47;100641.49;1743956;82;20968;-43
2022/06/18 02:17:39;;;;;;;4.33;3.92;;;;;;;16.58;92.73;100642.02;1743758;82;21259;-43
2022/06/18 02:20:15;;;;;;;4.03;3.33;;;;;;;16.57;92.87;100643.37;1744118;82;20932;-43
2022/06/18 02:22:47;;;;;;;4.72;3.52;;;;;;;16.55;93.52;100636.92;1744254;82;20885;-43
2022/06/18 02:25:16;;;;;;;7.25;3.42;;;;;;;16.55;93.74;100646.06;1743947;82;20892;-44
2022/06/18 02:27:43;;;;;;;5.05;2.92;;;;;;;16.54;94.13;100643.02;1744178;82;20980;-43
2022/06/18 02:30:20;;;;;;;6.03;3.42;;;;;;;16.55;94.75;100638.22;1743990;81;21302;-43
2022/06/18 02:33:13;;;;;;;5.67;2.90;;;;;;;16.55;95.32;100642.14;1743963;82;20922;-43
2022/06/18 02:35:40;;;;;;;12.20;3.77;;;;;;;16.57;96.15;100645.55;1732005;82;20948;-43
2022/06/18 02:38:19;;;;;;;9.23;4.25;;;;;;;16.55;96.31;100640.84;1744063;82;20968;-43
2022/06/18 02:40:47;;;;;;;9.45;3.40;;;;;;;16.56;96.66;100639.92;1744137;81;20996;-43
2022/06/18 02:43:14;;;;;;;3.25;2.70;;;;;;;16.57;97.01;100644.23;1744108;82;21291;-43
2022/06/18 02:45:43;;;;;;;5.10;2.72;;;;;;;16.57;97.24;100650.77;1744066;82;20952;-44
2022/06/18 02:48:09;;;;;;;5.20;2.50;;;;;;;16.57;97.52;100650.77;1715032;82;20877;-44
2022/06/18 02:50:40;;;;;;;3.00;2.50;;;;;;;16.59;97.94;100654.16;1744239;82;21478;-44
2022/06/18 02:53:08;;;;;;;3.67;2.70;;;;;;;16.59;98.29;100650.25;1744814;81;21423;-44
2022/06/18 02:55:45;;;;;;;6.58;2.90;;;;;;;16.60;99.14;100653.70;1749746;81;21278;-44
2022/06/18 02:58:20;;;;;;;3.92;2.62;;;;;;;16.58;99.39;100653.77;1749815;82;20869;-44
2022/06/18 03:00:54;;;;;;;6.12;2.92;;;;;;;16.58;99.71;100655.08;1749987;82;20971;-43
2022/06/18 03:03:23;;;;;;;8.93;2.87;;;;;;;16.59;100.00;100656.78;1749617;82;20893;-43
2022/06/18 03:05:52;;;;;;;6.65;2.27;;;;;;;16.63;100.00;100662.27;1749871;81;20964;-43
2022/06/18 03:08:21;;;;;;;3.35;2.50;;;;;;;16.66;99.77;100661.27;1749994;82;21236;-44
2022/06/18 03:13:38;;;;;;;5.03;2.70;;;;;;;16.72;99.76;100660.19;1749966;82;20999;-43
2022/06/18 03:16:08;;;;;;;4.70;2.62;;;;;;;16.75;99.75;100662.67;1749760;82;20932;-43
2022/06/18 03:18:37;;;;;;;5.87;2.55;;;;;;;16.75;99.50;100669.20;1749868;82;20841;-43
2022/06/18 03:21:22;;;;;;;3.60;2.50;;;;;;;16.74;99.59;100668.81;1749897;81;21210;-44
2022/06/18 03:23:49;;;;;;;5.87;2.33;;;;;;;16.76;99.65;100674.82;1749912;82;20948;-43
2022/06/18 03:26:16;;;;;;;3.27;2.60;;;;;;;16.82;100.00;100674.59;1749854;82;21018;-44
2022/06/18 03:28:44;;;;;;;3.62;3.02;;;;;;;16.87;99.76;100675.69;1749731;82;20904;-43
2022/06/18 03:31:12;;;;;;;5.85;2.85;;;;;;;16.91;99.97;100677.26;1749871;81;20944;-44
2022/06/18 03:33:39;;;;;;;7.35;3.10;;;;;;;16.96;100.00;100671.41;1750074;82;21948;-43
2022/06/18 03:36:08;;;;;;;4.67;3.58;;;;;;;17.06;100.00;100675.35;1749808;82;20881;-44
2022/06/18 03:38:35;;;;;;;6.80;3.55;;;;;;;17.18;99.52;100678.38;1749958;80;20960;-44
2022/06/18 03:41:04;;;;;;;4.20;3.55;;;;;;;17.21;99.07;100674.33;1749793;81;20858;-43
2022/06/18 03:43:31;;;;;;;4.12;3.20;;;;;;;17.23;98.73;100675.94;1749829;81;20963;-43
2022/06/18 03:46:05;;;;;;;5.92;3.58;;;;;;;17.28;98.25;100676.20;1750290;82;21162;-43
2022/06/18 03:48:49;;;;;;;7.37;3.60;;;;;;;17.31;98.05;100670.86;1749829;81;20952;-43
2022/06/18 03:51:18;;;;;;;6.25;3.30;;;;;;;17.34;97.70;100670.72;1750089;82;20893;-43
2022/06/18 03:53:45;;;;;;;5.50;3.20;;;;;;;17.38;97.55;100670.97;1745948;82;21016;-43
2022/06/18 03:56:17;;;;;;;4.25;3.00;;;;;;;17.46;97.44;100680.63;1735898;81;20960;-44
2022/06/18 03:58:45;;;;;;;14.25;3.50;;;;;;;17.59;97.03;100682.73;1735765;82;21270;-43
2022/06/18 04:01:15;;;;;;;3.72;2.90;;;;;;;17.81;96.66;100683.91;1735772;82;20960;-44
2022/06/18 04:03:43;;;;;;;7.42;2.65;;;;;;;18.05;95.83;100679.81;1714883;82;21533;-44
2022/06/18 04:06:14;;;;;;;2.98;2.67;;;;;;;18.24;94.56;100685.04;1735381;82;20885;-43
2022/06/18 04:08:40;;;;;;;8.50;2.70;;;;;;;18.45;93.76;100691.50;1735857;82;20913;-43
2022/06/18 04:11:12;;;;;;;9.45;2.72;;;;;;;18.72;93.00;100692.39;1734390;82;21891;-43
2022/06/18 04:13:39;;;;;;;5.03;2.62;;;;;;;19.07;92.46;100688.50;1735854;82;21016;-44
2022/06/18 04:16:14;;;;;;;7.08;2.22;;;;;;;19.43;90.02;100684.07;1736050;82;27092;-44
2022/06/18 04:18:43;;;;;;;2.87;2.50;;;;;;;19.84;86.75;100689.40;1736016;81;20917;-44
2022/06/18 04:21:11;;;;;;;4.47;2.50;;;;;;;20.15;84.27;100688.58;1735935;82;20968;-44
2022/06/18 04:23:41;;;;;;;3.10;2.25;;;;;;;20.35;81.94;100686.64;1736130;82;21173;-44
2022/06/18 04:26:08;;;;;;;2.42;2.15;;;;;;;20.44;81.10;100694.48;1736024;82;21478;-43
2022/06/18 04:28:34;;;;;;;6.75;2.33;;;;;;;20.47;80.39;100685.09;1735852;81;20973;-44
2022/06/18 04:31:07;;;;;;;2.30;2.20;;;;;;;20.55;79.84;100693.39;1735877;81;20976;-43
2022/06/18 04:33:36;;;;;;;6.67;2.20;;;;;;;20.62;78.53;100695.21;1735196;82;20893;-44
2022/06/18 04:36:32;;;;;;;3.72;2.12;;;;;;;20.56;76.32;100696.39;1734900;82;22350;-44
2022/06/18 04:39:01;;;;;;;3.83;2.12;;;;;;;20.35;76.70;100698.02;1739192;82;20996;-43
2022/06/18 04:41:42;;;;;;;2.25;2.02;;;;;;;20.28;77.58;100694.49;1689540;82;20909;-44
2022/06/18 04:44:11;;;;;;;6.35;2.10;;;;;;;20.42;77.08;100701.13;1735744;82;20921;-44
2022/06/18 04:46:39;;;;;;;2.30;2.10;;;;;;;20.53;77.73;100693.95;1736008;82;21008;-43
2022/06/18 04:49:07;;;;;;;2.17;1.95;;;;;;;20.63;76.66;100696.91;1736073;82;21151;-43
2022/06/18 04:51:34;;;;;;;4.55;2.35;;;;;;;20.65;75.62;100695.89;1735942;81;20965;-43
2022/06/18 04:54:01;;;;;;;5.55;2.27;;;;;;;20.82;76.62;100698.03;1735922;81;20971;-43
2022/06/18 04:56:28;;;;;;;2.20;2.00;;;;;;;20.88;76.29;100699.47;1735996;82;20925;-44
2022/06/18 04:58:55;;;;;;;5.75;2.17;;;;;;;20.80;76.05;100703.40;1735893;82;20909;-43
2022/06/18 05:01:29;;;;;;;7.53;2.25;;;;;;;20.67;75.38;100713.74;1736013;82;21138;-43
2022/06/18 05:04:15;;;;;;;3.52;2.77;;;;;;;20.41;74.13;100709.94;1735980;82;20830;-44
2022/06/18 05:06:47;;;;;;;18.85;2.80;;;;;;;20.09;76.01;100713.89;1735782;82;20986;-43
2022/06/18 05:09:16;;;;;;;11.38;2.45;;;;;;;20.06;76.14;100718.00;1734655;82;21427;-44
2022/06/18 05:11:46;;;;;;;2.75;2.55;;;;;;;19.96;75.83;100717.64;1734475;82;21699;-43
2022/06/18 05:14:19;;;;;;;63.85;5.37;;;;;;;19.93;76.47;100721.75;1735457;82;20874;-43
2022/06/18 05:16:48;;;;;;;4.33;2.33;;;;;;;19.83;76.43;100722.67;1735501;81;21474;-43
2022/06/18 05:19:25;;;;;;;8.90;2.52;;;;;;;19.70;76.94;100722.92;1715244;82;20980;-43
2022/06/18 05:21:54;;;;;;;3.45;2.20;;;;;;;19.64;77.47;100724.13;1736051;82;21471;-43
2022/06/18 05:24:21;;;;;;;6.95;2.35;;;;;;;19.64;77.09;100724.13;1736111;82;20917;-44
2022/06/18 05:26:51;;;;;;;2.30;2.10;;;;;;;19.59;76.60;100730.91;1736028;81;21055;-44
2022/06/18 05:29:17;;;;;;;3.95;2.47;;;;;;;19.56;76.95;100735.47;1735835;82;20952;-44
2022/06/18 05:31:44;;;;;;;4.90;2.00;;;;;;;19.55;75.79;100731.14;1735969;82;20960;-43
2022/06/18 05:34:12;;;;;;;6.00;1.90;;;;;;;19.56;76.60;100738.09;1735856;82;21015;-42
2022/06/18 05:36:41;;;;;;;3.90;2.10;;;;;;;19.56;75.64;100738.09;1735981;82;20881;-43
2022/06/18 05:39:08;;;;;;;4.85;2.00;;;;;;;19.49;75.98;100738.89;1736051;81;21254;-43
2022/06/18 05:41:38;;;;;;;2.45;1.90;;;;;;;19.48;75.89;100748.53;1715787;82;21459;-43
2022/06/18 05:44:06;;;;;;;4.42;2.10;;;;;;;19.57;75.23;100738.02;1736108;81;21526;-43
2022/06/18 05:46:33;;;;;;;2.00;1.90;;;;;;;19.62;75.82;100749.13;1735946;82;20929;-44
2022/06/18 05:49:01;;;;;;;2.00;1.90;;;;;;;19.84;75.16;100744.55;1735990;81;20976;-43
2022/06/18 05:51:29;;;;;;;3.58;1.47;;;;;;;20.13;74.67;100736.92;1735972;82;21108;-44
2022/06/18 05:53:55;;;;;;;5.90;1.32;;;;;;;20.56;73.62;100736.32;1736540;81;20961;-44
2022/06/18 05:56:26;;;;;;;3.55;1.60;;;;;;;21.04;68.10;100742.83;1746237;80;20936;-44
2022/06/18 05:59:01;;;;;;;;;;;;;;;21.56;68.51;100744.63;1752535;82;20881;-43
2022/06/18 06:01:30;;;;;;;3.85;1.70;;;;;;;22.12;65.32;100750.52;1749504;82;20444;-44
2022/06/18 06:03:58;;;;;;;3.98;1.45;;;;;;;22.17;64.00;100742.67;1750113;80;21147;-44
2022/06/18 06:06:26;;;;;;;3.52;1.87;;;;;;;21.97;64.42;100747.88;1749706;81;20920;-44
2022/06/18 06:08:53;;;;;;;1.57;1.47;;;;;;;21.67;64.07;100751.46;1749694;82;20929;-45
2022/06/18 06:11:29;;;;;;;2.80;1.45;;;;;;;21.46;64.66;100750.45;1750186;82;20901;-43
2022/06/18 06:13:57;;;;;;;13.45;2.12;;;;;;;21.30;64.70;100754.48;1749775;82;21620;-44
2022/06/18 06:16:25;;;;;;;3.95;1.75;;;;;;;21.24;65.25;100754.36;1749963;82;21139;-44
2022/06/18 06:18:52;;;;;;;2.10;1.57;;;;;;;21.11;66.31;100745.51;1749870;82;20881;-47
2022/06/18 06:21:19;;;;;;;15.98;2.08;;;;;;;21.13;67.33;100746.72;1749925;82;20964;-43
2022/06/18 06:23:46;;;;;;;9.08;1.82;;;;;;;21.06;66.62;100749.71;1749893;82;20933;-44
2022/06/18 06:26:23;;;;;;;6.45;1.62;;;;;;;20.89;67.57;100753.77;1750003;82;21415;-43
2022/06/18 06:28:50;;;;;;;3.50;1.65;;;;;;;20.75;67.69;100747.95;1750049;80;21268;-43
2022/06/18 06:31:18;;;;;;;3.33;1.57;;;;;;;20.84;66.33;100747.48;1749984;82;20929;-44
2022/06/18 06:33:45;;;;;;;33.02;2.77;;;;;;;20.78;67.22;100750.41;1749636;81;21304;-44
2022/06/18 06:36:12;;;;;;;16.70;1.95;;;;;;;20.99;67.01;100739.63;1749933;82;20889;-44
2022/06/18 06:38:39;;;;;;;4.00;1.82;;;;;;;21.08;66.32;100739.08;1750147;82;21418;-43
2022/06/18 06:41:16;;;;;;;10.05;1.60;;;;;;;21.16;66.59;100746.53;1749779;81;21401;-43
2022/06/18 06:43:44;;;;;;;3.67;1.87;;;;;;;21.20;64.45;100744.95;1749822;82;21514;-45
2022/06/18 06:46:15;;;;;;;9.88;1.42;;;;;;;21.33;65.08;100741.58;1749962;82;20904;-43
2022/06/18 06:48:43;;;;;;;3.17;1.77;;;;;;;21.45;64.47;100739.55;1749830;82;20928;-43
2022/06/18 06:51:22;;;;;;;68.55;5.35;;;;;;;21.56;64.45;100740.68;1749879;82;20881;-44
2022/06/18 06:53:48;;;;;;;2.58;1.60;;;;;;;21.68;63.58;100744.77;1749763;82;21327;-42
2022/06/18 06:59:01;;;;;;;4.03;1.45;;;;;;;21.87;63.12;100742.33;1749787;81;20837;-43
2022/06/18 07:01:29;;;;;;;1.42;1.30;;;;;;;22.05;62.11;100736.38;1749852;82;20916;-43
2022/06/18 07:03:56;;;;;;;2.45;1.30;;;;;;;22.16;62.68;100746.73;1750000;80;20924;-44
2022/06/18 07:06:23;;;;;;;2.27;1.30;;;;;;;22.13;61.99;100750.89;1750007;80;21330;-43
2022/06/18 07:08:50;;;;;;;2.25;1.45;;;;;;;22.05;62.42;100753.52;1749956;82;21011;-43
2022/06/18 07:11:18;;;;;;;2.00;1.47;;;;;;;21.91;62.43;100745.63;1749975;82;20967;-43
2022/06/18 07:13:45;;;;;;;7.28;1.50;;;;;;;21.97;61.60;100746.56;1749815;82;20992;-44
2022/06/18 07:16:13;;;;;;;7.35;1.47;;;;;;;22.07;62.29;100747.67;1749743;82;20867;-43
2022/06/18 07:18:40;;;;;;;8.23;1.37;;;;;;;21.99;61.07;100746.48;1749810;81;21085;-44
2022/06/18 07:21:15;;;;;;;2.02;1.50;;;;;;;21.90;62.77;100765.02;1749793;81;21449;-43
2022/06/18 07:23:42;;;;;;;1.90;1.40;;;;;;;21.97;63.00;100754.47;1749956;82;20916;-44
2022/06/18 07:26:12;;;;;;;3.83;1.47;;;;;;;22.14;62.73;100751.27;1749793;82;21426;-43
2022/06/18 07:28:39;;;;;;;3.83;1.65;;;;;;;22.33;62.05;100757.05;1749890;81;21007;-44
2022/06/18 07:31:06;;;;;;;3.75;1.45;;;;;;;22.48;60.73;100764.51;1749793;82;21158;-43
2022/06/18 07:33:33;;;;;;;1.72;1.47;;;;;;;22.55;60.91;100758.34;1749756;82;20931;-44
2022/06/18 07:36:00;;;;;;;10.55;1.60;;;;;;;22.33;59.59;100757.53;1749815;81;20944;-44
2022/06/18 07:38:27;;;;;;;8.93;1.60;;;;;;;22.31;61.85;100764.20;1749656;80;20900;-44
2022/06/18 07:40:54;;;;;;;2.45;1.40;;;;;;;22.44;60.70;100769.55;1749840;82;20900;-43
2022/06/18 07:43:38;;;;;;;12.28;1.62;;;;;;;22.35;60.93;100773.61;1749732;81;22545;-44
2022/06/18 07:46:06;;;;;;;9.95;1.60;;;;;;;22.32;60.63;100765.90;1749001;81;21426;-43
2022/06/18 07:48:32;;;;;;;7.35;1.70;;;;;;;22.29;59.89;100774.00;1749861;82;20976;-44
2022/06/18 07:51:00;;;;;;;4.30;1.50;;;;;;;22.12;60.48;100777.70;1749948;82;20912;-44
2022/06/18 07:53:27;;;;;;;4.87;1.30;;;;;;;21.92;59.66;100778.94;1749694;82;20999;-43
2022/06/18 07:55:57;;;;;;;3.90;1.47;;;;;;;21.85;61.05;100776.28;1741341;81;21089;-44
2022/06/18 07:58:26;;;;;;;1.80;1.10;;;;;;;22.00;61.47;100771.41;1735775;82;20980;-45
2022/06/18 08:00:53;;;;;;;1.35;1.12;;;;;;;21.98;60.57;100774.60;1736003;82;20921;-45
2022/06/18 08:03:20;;;;;;;3.00;1.42;;;;;;;22.08;61.67;100778.84;1735956;81;20992;-49
2022/06/18 08:05:49;;;;;;;2.02;1.30;;;;;;;22.16;61.06;100778.37;1736147;82;20996;-44
2022/06/18 08:10:58;;;;;;;4.60;1.62;;;;;;;21.92;60.32;100777.62;1798462;79;22497;-43
2022/06/18 08:13:25;;;;;;;1.40;1.35;;;;;;;21.75;60.72;100783.93;1758201;80;21398;-44
2022/06/18 08:15:54;;;;;;;1.30;1.20;;;;;;;21.76;60.74;100782.50;1758095;80;21509;-44
2022/06/18 08:18:21;;;;;;;3.52;1.85;;;;;;;21.81;61.41;100777.80;1757906;81;21541;-43
2022/06/18 08:20:48;;;;;;;5.87;1.67;;;;;;;21.85;60.87;100785.50;1758104;81;20948;-43
2022/06/18 08:23:14;;;;;;;2.85;1.55;;;;;;;21.85;61.13;100785.05;1758110;81;20979;-43
2022/06/18 08:25:41;;;;;;;6.67;1.57;;;;;;;21.85;60.08;100790.77;1758185;81;20916;-43
2022/06/18 08:28:08;;;;;;;6.28;1.37;;;;;;;21.77;59.53;100786.83;1758052;81;22131;-44
2022/06/18 08:30:35;;;;;;;24.75;2.70;;;;;;;21.69;60.50;100770.65;1757994;81;20955;-44
2022/06/18 08:33:04;;;;;;;12.47;2.17;;;;;;;21.68;60.03;100775.55;1757624;81;20912;-43
2022/06/18 08:35:31;;;;;;;37.25;2.92;;;;;;;21.88;59.81;100770.86;1749821;82;20976;-44
2022/06/18 08:37:57;;;;;;;4.67;1.57;;;;;;;22.14;59.47;100782.89;1749682;82;20881;-43
2022/06/18 08:40:47;;;;;;;6.40;1.87;;;;;;;22.34;59.84;100781.14;1749793;81;21251;-44
2022/06/18 08:43:51;;;;;;;1.40;1.12;;;;;;;22.48;59.94;100785.61;1749693;81;20990;-44
2022/06/18 08:46:56;;;;;;;1.55;1.40;;;;;;;22.64;58.03;100789.88;1749357;80;20900;-49
2022/06/18 08:49:54;;;;;;;12.40;2.02;;;;;;;22.91;58.10;100788.58;1749890;81;25721;-45
2022/06/18 08:52:44;;;;;;;3.90;1.35;;;;;;;23.32;56.72;100783.30;1749974;81;20873;-44
2022/06/18 08:55:20;;;;;;;3.02;1.72;;;;;;;23.48;55.02;100787.07;1749861;82;21166;-43
2022/06/18 08:58:13;;;;;;;6.05;1.85;;;;;;;23.28;56.07;100787.11;1749661;81;20936;-44
2022/06/18 09:01:10;;;;;;;1.77;1.25;;;;;;;23.08;55.48;100786.60;1744249;82;20999;-43
2022/06/18 09:04:00;;;;;;;;;;;;;;;22.81;56.05;100780.88;1750236;81;20893;-43
2022/06/18 09:06:56;;;;;;;4.00;1.42;;;;;;;22.81;54.68;100783.51;1749846;82;20396;-43
2022/06/18 09:09:37;;;;;;;3.33;1.70;;;;;;;22.70;56.15;100780.25;1746823;80;21849;-44
2022/06/18 09:12:15;;;;;;;4.08;1.57;;;;;;;22.73;56.02;100780.53;1736767;82;21403;-44
2022/06/18 09:15:04;;;;;;;7.10;1.67;;;;;;;22.90;58.09;100788.20;1736508;82;21455;-44
2022/06/18 09:17:55;;;;;;;9.10;1.70;;;;;;;23.03;57.45;100788.25;1736574;82;20988;-42
2022/06/18 09:20:39;;;;;;;1.62;1.27;;;;;;;23.22;55.31;100790.96;1736460;82;20973;-46
2022/06/18 09:23:17;;;;;;;5.17;1.47;;;;;;;23.32;54.34;100781.52;1736139;82;21926;-45
2022/06/18 09:25:47;;;;;;;1.60;1.50;;;;;;;23.44;54.97;100792.20;1735797;82;20980;-44
2022/06/18 09:28:33;;;;;;;6.00;1.80;;;;;;;23.25;55.63;100783.72;1735923;82;20956;-45
2022/06/18 09:31:14;;;;;;;2.55;1.98;;;;;;;23.22;56.70;100787.00;1735985;81;20989;-44
2022/06/18 09:33:48;;;;;;;2.70;1.50;;;;;;;23.47;55.56;100782.28;1736226;82;21004;-44
2022/06/18 09:36:26;;;;;;;3.37;1.62;;;;;;;23.77;55.53;100787.73;1736076;82;21264;-43
2022/06/18 09:38:58;;;;;;;19.00;2.33;;;;;;;23.96;53.51;100784.64;1736093;82;21375;-44
2022/06/18 09:41:29;;;;;;;3.55;1.70;;;;;;;24.07;53.02;100789.70;1732912;82;20925;-44
2022/06/18 09:44:04;;;;;;;2.62;1.52;;;;;;;23.88;54.92;100798.05;1735638;81;21399;-44
2022/06/18 09:46:49;;;;;;;4.15;1.82;;;;;;;23.90;55.59;100800.94;1736174;82;20997;-44
2022/06/18 09:49:18;;;;;;;3.70;1.80;;;;;;;23.95;54.39;100799.30;1736106;82;21407;-44
2022/06/18 09:54:24;;;;;;;2.35;2.02;;;;;;;24.46;54.64;100788.28;1736141;81;20874;-45
2022/06/18 09:56:54;;;;;;;3.30;1.72;;;;;;;24.67;53.36;100792.48;1715247;82;21513;-44
2022/06/18 09:59:25;;;;;;;2.67;1.60;;;;;;;24.50;53.93;100797.69;1715243;82;21012;-43
2022/06/18 10:01:53;;;;;;;4.65;1.60;;;;;;;24.34;53.99;100793.98;1735939;81;21213;-45
2022/06/18 10:07:22;;;;;;;3.27;1.52;;;;;;;24.18;53.81;100800.34;1735930;81;20937;-44
2022/06/18 10:09:57;;;;;;;12.53;11.15;;;;;;;24.28;55.26;100789.14;1715027;82;21029;-44
2022/06/18 10:12:34;;;;;;;5.65;1.85;;;;;;;24.41;55.95;100793.06;1715526;82;20881;-45
2022/06/18 10:15:04;;;;;;;2.85;1.60;;;;;;;24.41;53.47;100798.36;1736127;82;22100;-45
2022/06/18 10:17:57;;;;;;;2.27;2.10;;;;;;;24.15;56.11;100806.34;1735777;82;20987;-44
2022/06/18 10:20:48;;;;;;;4.03;1.62;;;;;;;24.16;56.13;100793.50;1736260;82;21409;-44
2022/06/18 10:23:21;;;;;;;6.75;2.35;;;;;;;23.99;55.08;100798.12;1736080;82;20893;-43
2022/06/18 10:26:05;;;;;;;3.10;2.00;;;;;;;23.70;56.19;100793.07;1736162;82;21541;-45
2022/06/18 10:28:57;;;;;;;18.15;2.62;;;;;;;23.85;56.96;100790.30;1736034;82;21256;-45
2022/06/18 10:31:32;;;;;;;2.37;1.50;;;;;;;23.96;56.27;100793.06;1735508;82;20953;-45
2022/06/18 10:34:09;;;;;;;43.15;4.12;;;;;;;23.92;56.27;100790.27;1715209;82;20889;-45
2022/06/18 10:36:53;;;;;;;5.53;2.08;;;;;;;24.18;56.23;100788.94;1715199;82;21552;-45
2022/06/18 10:39:48;;;;;;;3.12;1.60;;;;;;;24.38;57.69;100783.08;1736013;82;21375;-44
2022/06/18 10:42:48;;;;;;;2.50;1.55;;;;;;;24.61;54.92;100790.30;1735982;82;22059;-44
2022/06/18 10:45:39;;;;;;;8.40;1.80;;;;;;;24.44;54.01;100785.73;1735279;82;20933;-44
2022/06/18 10:48:14;;;;;;;3.42;1.57;;;;;;;24.65;55.01;100787.78;1736000;82;20861;-44
2022/06/18 10:50:48;;;;;;;2.55;1.90;;;;;;;24.72;53.42;100786.87;1735997;82;20901;-44
2022/06/18 10:53:17;;;;;;;11.30;1.82;;;;;;;24.57;55.00;100784.38;1735240;81;20867;-44
2022/06/18 10:55:43;;;;;;;6.10;1.45;;;;;;;24.42;54.95;100782.86;1735801;81;21302;-43
2022/06/18 10:58:14;;;;;;;12.37;1.80;;;;;;;24.30;56.09;100789.37;1735978;82;20956;-44
2022/06/18 11:01:00;;;;;;;6.03;1.82;;;;;;;24.05;54.47;100791.11;1735950;82;21004;-44
2022/06/18 11:03:30;;;;;;;6.15;1.62;;;;;;;23.81;56.70;100791.84;1730127;82;20960;-46
2022/06/18 11:05:57;;;;;;;1.90;1.70;;;;;;;23.42;56.24;100791.00;1736005;81;20960;-45
2022/06/18 11:08:30;;;;;;;1.87;1.40;;;;;;;23.20;57.74;100791.08;1735937;82;21138;-42
2022/06/18 11:11:07;;;;;;;1.92;1.57;;;;;;;23.22;57.72;100780.41;1744429;82;21019;-43
2022/06/18 11:13:42;;;;;;;9.80;1.87;;;;;;;23.19;57.81;100786.75;1750071;81;20929;-44
2022/06/18 11:16:15;;;;;;;;;;;;;;;23.21;58.44;100787.49;1752721;82;21359;-44
2022/06/18 11:18:58;;;;;;;13.32;2.55;;;;;;;23.30;58.52;100779.47;1750194;82;20075;-43
2022/06/18 11:21:39;;;;;;;1.98;1.60;;;;;;;23.54;58.29;100782.72;1749485;82;21214;-44
2022/06/18 11:24:20;;;;;;;2.10;1.87;;;;;;;23.90;57.24;100778.47;1748343;82;20940;-44
2022/06/18 11:27:00;;;;;;;7.97;1.70;;;;;;;24.18;56.32;100781.84;1749625;81;20921;-45
2022/06/18 11:29:40;;;;;;;38.05;3.80;;;;;;;24.17;55.92;100779.32;1749838;82;20980;-45
2022/06/18 11:32:24;;;;;;;19.02;2.00;;;;;;;23.87;57.02;100779.15;1749965;81;20873;-44
2022/06/18 11:35:02;;;;;;;3.75;1.50;;;;;;;23.85;57.74;100774.45;1749807;82;21140;-45
2022/06/18 11:37:31;;;;;;;1.70;1.57;;;;;;;24.23;55.99;100773.09;1749821;82;20901;-44
2022/06/18 11:40:09;;;;;;;6.62;1.50;;;;;;;24.16;56.43;100767.05;1749886;80;20933;-45
2022/06/18 11:42:52;;;;;;;6.83;1.65;;;;;;;24.20;55.46;100775.13;1749818;81;20975;-44
2022/06/18 11:45:54;;;;;;;6.65;1.92;;;;;;;24.25;54.82;100774.32;1749972;82;20937;-44
2022/06/18 11:48:44;;;;;;;2.47;1.57;;;;;;;24.18;56.68;100771.75;1750031;82;21165;-44
2022/06/18 11:51:35;;;;;;;6.17;1.70;;;;;;;24.48;56.18;100769.17;1749842;81;20908;-44
2022/06/18 11:54:39;;;;;;;5.40;1.90;;;;;;;24.83;54.35;100757.83;1750012;82;20892;-45
2022/06/18 11:57:31;;;;;;;10.98;4.67;;;;;;;24.84;54.19;100756.86;1750043;82;21474;-44
2022/06/18 12:00:12;;;;;;;3.83;2.02;;;;;;;25.10;53.63;100750.09;1750030;82;20909;-44
2022/06/18 12:02:45;;;;;;;3.05;1.92;;;;;;;25.09;53.12;100767.80;1749969;82;21299;-44
2022/06/18 12:05:38;;;;;;;5.22;1.85;;;;;;;24.86;53.51;100758.09;1749963;82;20984;-43
2022/06/18 12:08:05;;;;;;;8.23;1.62;;;;;;;24.83;52.98;100764.45;1747028;82;20972;-45
2022/06/18 12:10:50;;;;;;;7.33;1.77;;;;;;;24.64;53.13;100751.70;1749837;81;21399;-44